Terminal Aerodrome Forecast
Issued by NWS

Home | Current Version | Previous Version | Text Only | Print | Product List | Glossary Off
Versions: 1 2 3 4 5 6 7 8 9 10 11 12 13 14 15 16 17

576
FTUS44 KLZK 221700 AAA
TAFLIT
TAF AMD
KLIT 221700Z 2217/2312 11011KT P6SM SCT130 BKN250
     FM230000 VRB03KT P6SM BKN250=

USA.gov is the U.S. government's official web portal to all federal, state and local government web resources and services.